Time;durP1;ratioP1;P1;durP2;ratioP2;P2;SDS_P1;SDS_P2;PMS_P1;PMS_P2;Temp;Humidity;BMP_temperature;BMP_pressure;BME280_temperature;BME280_humidity;BME280_pressure;Samples;Min_cycle;Max_cycle;Signal;HPM_P1;HPM_P2
2021/04/10 00:01:59;;;;;;;13.52;8.25;;;9.30;61.50;;;;;;5115199;28;20031;-38
2021/04/10 00:04:25;;;;;;;18.52;10.27;;;9.30;61.80;;;;;;5114973;28;20028;-38
2021/04/10 00:06:51;;;;;;;14.52;9.38;;;9.30;62.10;;;;;;5114927;28;20016;-36
2021/04/10 00:09:16;;;;;;;14.07;9.07;;;9.30;62.20;;;;;;5113567;28;20020;-37
2021/04/10 00:11:42;;;;;;;10.38;8.52;;;9.30;62.10;;;;;;5114904;28;20028;-37
2021/04/10 00:14:11;;;;;;;17.45;9.20;;;9.20;62.70;;;;;;5115151;28;20333;-37
2021/04/10 00:16:37;;;;;;;14.48;8.73;;;9.10;63.20;;;;;;5113343;28;20479;-37
2021/04/10 00:19:03;;;;;;;13.63;9.40;;;9.00;64.50;;;;;;5115277;28;20077;-37
2021/04/10 00:21:29;;;;;;;16.35;10.18;;;9.00;64.50;;;;;;5114611;28;20027;-37
2021/04/10 00:23:55;;;;;;;13.73;9.82;;;9.00;64.70;;;;;;5115262;28;20341;-38
2021/04/10 00:26:22;;;;;;;15.73;9.57;;;9.00;65.10;;;;;;5114713;28;20353;-36
2021/04/10 00:28:48;;;;;;;20.73;10.63;;;9.00;65.80;;;;;;5114663;28;20023;-37
2021/04/10 00:31:13;;;;;;;16.83;10.25;;;9.00;65.10;;;;;;5114549;28;20031;-36
2021/04/10 00:33:41;;;;;;;11.80;9.20;;;9.00;65.70;;;;;;5114997;28;20083;-36
2021/04/10 00:36:08;;;;;;;12.05;8.95;;;9.00;65.60;;;;;;5114354;28;20054;-36
2021/04/10 00:38:35;;;;;;;18.77;10.30;;;9.00;65.10;;;;;;5114632;28;20157;-37
2021/04/10 00:41:01;;;;;;;12.05;9.00;;;9.00;65.80;;;;;;5114179;28;20114;-37
2021/04/10 00:43:28;;;;;;;16.15;10.85;;;8.90;66.40;;;;;;5112982;28;20024;-36
2021/04/10 00:45:53;;;;;;;15.23;10.18;;;8.90;67.70;;;;;;5114520;28;20115;-36
2021/04/10 00:48:20;;;;;;;16.02;11.70;;;8.80;68.00;;;;;;5114374;28;20507;-36
2021/04/10 00:50:47;;;;;;;17.77;10.25;;;8.80;67.00;;;;;;5113781;28;20134;-37
2021/04/10 00:53:15;;;;;;;16.90;10.73;;;8.80;68.30;;;;;;5113866;28;20051;-36
2021/04/10 00:55:45;;;;;;;16.98;10.82;;;8.80;69.50;;;;;;5113822;28;20030;-36
2021/04/10 00:58:11;;;;;;;16.17;10.68;;;8.80;69.50;;;;;;5114020;28;20032;-36
2021/04/10 01:00:37;;;;;;;15.75;11.02;;;8.80;69.90;;;;;;5113606;28;20024;-36
2021/04/10 01:03:03;;;;;;;14.60;10.25;;;8.80;71.70;;;;;;5113606;28;20035;-37
2021/04/10 01:05:29;;;;;;;19.48;12.02;;;8.90;69.70;;;;;;5113897;28;20039;-36
2021/04/10 01:07:55;;;;;;;18.10;11.38;;;8.80;69.70;;;;;;5113977;28;20023;-37
2021/04/10 01:10:21;;;;;;;19.67;11.55;;;8.80;69.30;;;;;;5114202;28;20016;-37
2021/04/10 01:13:01;;;;;;;17.98;11.55;;;8.70;70.70;;;;;;5113867;28;20028;-38
2021/04/10 01:16:07;;;;;;;15.90;12.25;;;8.50;72.00;;;;;;5112250;28;20024;-36
2021/04/10 01:18:58;;;;;;;16.95;11.23;;;8.40;73.10;;;;;;5114372;28;20085;-36
2021/04/10 01:21:41;;;;;;;18.63;13.15;;;8.40;73.70;;;;;;5112201;28;20055;-36
2021/04/10 01:24:31;;;;;;;19.33;13.65;;;8.40;73.90;;;;;;5113618;28;20034;-36
2021/04/10 01:27:06;;;;;;;21.35;12.68;;;8.40;73.80;;;;;;5113349;28;20081;-36
2021/04/10 01:29:48;;;;;;;15.27;12.70;;;8.60;72.80;;;;;;5114227;28;20452;-36
2021/04/10 01:32:14;;;;;;;18.90;12.73;;;8.40;73.80;;;;;;5113660;28;20476;-36
2021/04/10 01:34:42;;;;;;;19.52;13.77;;;8.40;74.50;;;;;;5112417;28;20103;-37
2021/04/10 01:37:32;;;;;;;22.10;15.18;;;8.60;73.90;;;;;;5112389;28;20440;-36
2021/04/10 01:40:00;;;;;;;16.53;13.27;;;8.50;75.40;;;;;;5108484;28;20032;-36
2021/04/10 01:42:28;;;;;;;18.88;13.70;;;8.50;75.80;;;;;;5112372;28;20128;-36
2021/04/10 01:44:56;;;;;;;20.15;14.45;;;8.40;75.90;;;;;;5112106;28;20034;-36
2021/04/10 01:47:22;;;;;;;17.30;14.32;;;8.30;76.60;;;;;;5113504;28;20471;-36
2021/04/10 01:49:49;;;;;;;21.52;13.23;;;8.30;76.40;;;;;;5113480;28;20051;-37
2021/04/10 01:52:18;;;;;;;22.95;15.10;;;8.30;76.50;;;;;;5113495;28;20015;-37
2021/04/10 01:54:44;;;;;;;21.00;14.95;;;8.30;77.30;;;;;;5113511;28;20030;-37
2021/04/10 01:57:11;;;;;;;21.40;16.20;;;8.30;78.10;;;;;;5113660;28;20058;-37
2021/04/10 01:59:41;;;;;;;28.80;16.20;;;8.40;76.70;;;;;;5112144;28;20015;-37
2021/04/10 02:02:08;;;;;;;19.87;15.67;;;8.30;77.80;;;;;;5117352;28;20495;-37
2021/04/10 02:04:38;;;;;;;19.75;15.15;;;8.30;78.10;;;;;;5117336;28;20016;-37
2021/04/10 02:07:04;;;;;;;20.10;14.68;;;8.30;78.10;;;;;;5117554;28;20023;-36
2021/04/10 02:09:33;;;;;;;21.38;15.52;;;8.30;76.90;;;;;;5117210;28;20140;-37
2021/04/10 02:11:59;;;;;;;19.27;15.27;;;8.30;77.60;;;;;;5117409;28;20027;-36
2021/04/10 02:14:27;;;;;;;20.88;15.65;;;8.30;77.30;;;;;;5117666;28;20019;-36
2021/04/10 02:16:52;;;;;;;20.95;14.65;;;8.30;77.50;;;;;;5117332;28;20038;-36
2021/04/10 02:19:18;;;;;;;20.10;14.43;;;8.30;78.60;;;;;;5117465;28;20028;-36
2021/04/10 02:21:44;;;;;;;19.02;15.50;;;8.20;78.90;;;;;;5117076;28;20028;-36
2021/04/10 02:24:12;;;;;;;21.98;14.55;;;8.30;79.10;;;;;;5116814;28;20475;-36
2021/04/10 02:26:38;;;;;;;20.85;15.02;;;8.20;79.70;;;;;;5116834;28;20012;-35
2021/04/10 02:29:04;;;;;;;19.80;15.77;;;8.20;79.70;;;;;;5117145;28;20106;-36
2021/04/10 02:31:51;;;;;;;19.70;15.68;;;8.30;79.40;;;;;;5117471;28;20035;-36
2021/04/10 02:34:20;;;;;;;23.17;16.02;;;8.20;79.00;;;;;;5117094;28;20431;-36
2021/04/10 02:36:49;;;;;;;23.77;16.67;;;8.20;78.00;;;;;;5117193;28;20054;-36
2021/04/10 02:39:17;;;;;;;22.35;16.13;;;8.20;79.00;;;;;;5116860;28;20031;-38
2021/04/10 02:41:46;;;;;;;26.00;16.30;;;8.10;79.50;;;;;;5116716;28;20034;-36
2021/04/10 02:44:14;;;;;;;21.10;14.95;;;8.20;77.60;;;;;;5116669;28;20020;-37
2021/04/10 02:46:46;;;;;;;25.38;16.05;;;8.10;77.90;;;;;;5116640;28;20027;-37
2021/04/10 02:49:16;;;;;;;23.45;16.63;;;8.00;78.30;;;;;;5116712;28;20020;-37
2021/04/10 02:51:44;;;;;;;21.80;15.98;;;8.10;78.50;;;;;;5116752;28;20055;-37
2021/04/10 02:54:13;;;;;;;22.15;16.40;;;8.20;79.30;;;;;;5116706;28;20383;-37
2021/04/10 02:56:44;;;;;;;19.83;15.57;;;8.60;78.50;;;;;;5116631;28;20459;-37
2021/04/10 02:59:11;;;;;;;24.67;18.10;;;8.70;77.40;;;;;;5116674;28;20502;-37
2021/04/10 03:01:38;;;;;;;23.00;17.27;;;8.40;78.20;;;;;;5116775;28;20023;-37
2021/04/10 03:04:06;;;;;;;24.02;17.17;;;8.30;77.70;;;;;;5116270;28;20077;-37
2021/04/10 03:06:33;;;;;;;29.02;18.27;;;8.30;78.30;;;;;;5116509;28;20030;-37
2021/04/10 03:08:59;;;;;;;25.70;17.60;;;8.30;77.00;;;;;;5116182;28;20064;-37
2021/04/10 03:11:25;;;;;;;25.23;16.02;;;8.30;76.50;;;;;;5114397;28;20028;-37
2021/04/10 03:13:52;;;;;;;24.10;15.93;;;8.20;76.70;;;;;;5115723;28;20024;-36
2021/04/10 03:16:20;;;;;;;22.52;16.25;;;8.10;77.20;;;;;;5116274;28;20383;-37
2021/04/10 03:18:50;;;;;;;27.63;19.50;;;8.10;77.20;;;;;;5114663;28;20032;-37
2021/04/10 03:21:16;;;;;;;25.00;16.90;;;8.00;77.80;;;;;;5115693;27;20030;-36
2021/04/10 03:23:41;;;;;;;30.77;17.92;;;7.90;78.30;;;;;;5116453;28;20098;-36
2021/04/10 03:26:08;;;;;;;23.15;16.08;;;7.80;78.70;;;;;;5115992;28;20054;-37
2021/04/10 03:28:35;;;;;;;22.10;16.00;;;7.70;79.30;;;;;;5114268;28;20064;-37
2021/04/10 03:31:02;;;;;;;22.40;15.48;;;7.70;80.30;;;;;;5115690;28;20552;-36
2021/04/10 03:33:35;;;;;;;30.05;18.60;;;7.80;80.10;;;;;;5114337;28;20023;-36
2021/04/10 03:36:02;;;;;;;25.63;17.83;;;7.80;80.50;;;;;;5115624;27;20035;-36
2021/04/10 03:38:28;;;;;;;26.73;17.17;;;7.80;80.00;;;;;;5115965;28;20043;-36
2021/04/10 03:40:54;;;;;;;28.85;17.98;;;7.70;80.30;;;;;;5115953;28;20094;-36
2021/04/10 03:43:20;;;;;;;25.67;17.63;;;7.70;80.50;;;;;;5115530;28;20022;-36
2021/04/10 03:45:46;;;;;;;26.45;17.27;;;7.70;80.50;;;;;;5115420;28;20019;-36
2021/04/10 03:48:12;;;;;;;27.35;17.20;;;7.70;80.90;;;;;;5115308;28;20042;-36
2021/04/10 03:50:39;;;;;;;32.28;19.77;;;7.70;81.10;;;;;;5115150;28;20070;-36
2021/04/10 03:53:05;;;;;;;24.98;18.48;;;7.60;81.20;;;;;;5115295;28;20043;-36
2021/04/10 03:55:31;;;;;;;26.83;18.23;;;7.60;81.30;;;;;;5115177;28;20531;-36
2021/04/10 03:58:00;;;;;;;27.20;16.67;;;7.50;81.90;;;;;;5115129;28;20062;-36
2021/04/10 04:00:26;;;;;;;30.88;20.23;;;7.60;81.30;;;;;;5115304;28;20476;-37
2021/04/10 04:02:52;;;;;;;25.30;17.65;;;7.70;81.80;;;;;;5115286;28;20020;-37
2021/04/10 04:05:18;;;;;;;24.90;17.15;;;7.70;81.00;;;;;;5115028;28;20069;-36
2021/04/10 04:07:44;;;;;;;23.90;18.02;;;7.50;81.50;;;;;;5115180;28;20020;-36
2021/04/10 04:10:10;;;;;;;26.42;18.75;;;7.40;82.10;;;;;;5115182;28;20032;-36
2021/04/10 04:12:35;;;;;;;26.75;17.90;;;7.40;81.60;;;;;;5115116;28;20027;-36
2021/04/10 04:15:03;;;;;;;27.42;18.17;;;7.40;82.00;;;;;;5114831;28;20383;-36
2021/04/10 04:17:28;;;;;;;29.17;18.23;;;7.30;82.50;;;;;;5114646;28;20030;-36
2021/04/10 04:19:54;;;;;;;30.90;18.77;;;7.40;82.60;;;;;;5114582;28;20028;-36
2021/04/10 04:22:20;;;;;;;32.22;18.88;;;7.50;82.30;;;;;;5114908;28;20020;-37
2021/04/10 04:24:45;;;;;;;29.67;18.10;;;7.40;82.30;;;;;;5114532;28;20065;-36
2021/04/10 04:27:11;;;;;;;32.22;18.70;;;7.50;82.50;;;;;;5114550;28;20027;-36
2021/04/10 04:29:36;;;;;;;26.67;18.50;;;7.60;81.90;;;;;;5114566;28;20020;-37
2021/04/10 04:32:02;;;;;;;32.88;19.85;;;7.40;82.40;;;;;;5114484;28;20028;-36
2021/04/10 04:34:28;;;;;;;30.38;19.80;;;7.50;82.00;;;;;;5114424;28;20030;-36
2021/04/10 04:36:53;;;;;;;41.20;23.30;;;7.40;82.00;;;;;;5114640;28;20030;-37
2021/04/10 04:39:19;;;;;;;32.75;19.90;;;7.30;82.60;;;;;;5114498;28;20471;-36
2021/04/10 04:41:45;;;;;;;34.17;19.98;;;7.30;83.30;;;;;;5114218;28;20023;-36
2021/04/10 04:44:11;;;;;;;30.40;19.92;;;7.40;83.10;;;;;;5114584;28;20145;-36
2021/04/10 04:46:36;;;;;;;30.48;18.88;;;7.40;82.80;;;;;;5113047;28;20031;-36
2021/04/10 04:49:02;;;;;;;27.90;18.77;;;7.40;82.70;;;;;;5112604;28;20027;-36
2021/04/10 04:51:28;;;;;;;31.55;19.98;;;7.40;82.80;;;;;;5114441;28;20548;-36
2021/04/10 04:53:54;;;;;;;33.03;19.88;;;7.40;83.30;;;;;;5114405;28;20027;-36
2021/04/10 04:56:20;;;;;;;28.98;20.08;;;7.30;83.80;;;;;;5114062;28;20039;-36
2021/04/10 04:58:45;;;;;;;35.42;20.98;;;7.20;84.30;;;;;;5114128;28;20025;-36
2021/04/10 05:01:11;;;;;;;32.75;21.67;;;7.20;84.60;;;;;;5113849;28;20020;-36
2021/04/10 05:03:37;;;;;;;33.53;20.52;;;7.10;85.30;;;;;;5112734;28;20024;-37
2021/04/10 05:06:02;;;;;;;29.00;20.10;;;7.10;85.20;;;;;;5114167;28;20031;-36
2021/04/10 05:08:28;;;;;;;32.47;20.73;;;7.10;85.40;;;;;;5113803;28;20031;-36
2021/04/10 05:10:54;;;;;;;36.30;21.30;;;7.00;85.30;;;;;;5114059;27;20106;-36
2021/04/10 05:13:19;;;;;;;33.17;20.30;;;7.00;85.90;;;;;;5113773;28;20084;-36
2021/04/10 05:15:45;;;;;;;37.22;24.23;;;7.00;85.80;;;;;;5114006;28;20076;-36
2021/04/10 05:18:11;;;;;;;34.22;21.35;;;7.00;86.10;;;;;;5114079;28;20034;-36
2021/04/10 05:20:36;;;;;;;36.35;20.77;;;7.10;86.10;;;;;;5113738;28;20027;-36
2021/04/10 05:23:02;;;;;;;33.53;19.92;;;7.10;85.70;;;;;;5112677;28;20413;-37
2021/04/10 05:25:28;;;;;;;28.60;16.80;;;6.90;86.10;;;;;;5113752;28;20483;-36
2021/04/10 05:27:54;;;;;;;32.28;21.05;;;6.80;86.20;;;;;;5113682;28;20094;-36
2021/04/10 05:30:20;;;;;;;29.15;17.42;;;6.80;86.40;;;;;;5113769;28;20023;-36
2021/04/10 05:32:46;;;;;;;37.25;19.85;;;6.80;86.70;;;;;;5114402;28;20356;-37
2021/04/10 05:35:13;;;;;;;26.98;17.60;;;6.70;86.50;;;;;;5115878;28;20031;-37
2021/04/10 05:37:39;;;;;;;32.45;19.02;;;6.80;85.80;;;;;;5117934;28;20039;-37
2021/04/10 05:40:06;;;;;;;34.00;19.92;;;6.80;86.10;;;;;;5117924;28;20027;-37
2021/04/10 05:42:32;;;;;;;31.05;18.40;;;6.80;85.80;;;;;;5118192;28;20080;-35
2021/04/10 05:44:58;;;;;;;31.10;16.25;;;6.80;85.60;;;;;;5117661;28;20026;-35
2021/04/10 05:47:24;;;;;;;36.00;19.48;;;6.80;85.80;;;;;;5117951;28;20024;-36
2021/04/10 05:49:50;;;;;;;29.17;16.65;;;6.70;86.10;;;;;;5115953;28;20044;-36
2021/04/10 05:52:16;;;;;;;31.60;15.48;;;6.80;85.70;;;;;;5117810;28;20035;-36
2021/04/10 05:54:42;;;;;;;26.90;15.63;;;6.70;84.80;;;;;;5118451;27;20348;-36
2021/04/10 05:57:07;;;;;;;29.20;14.82;;;6.70;85.40;;;;;;5116268;28;20035;-36
2021/04/10 05:59:33;;;;;;;30.60;15.95;;;6.80;84.90;;;;;;5117489;28;20031;-36
2021/04/10 06:02:05;;;;;;;22.95;14.02;;;6.80;84.90;;;;;;5117333;28;20032;-36
2021/04/10 06:04:30;;;;;;;23.52;14.35;;;6.70;85.20;;;;;;5118204;27;20019;-36
2021/04/10 06:06:56;;;;;;;30.95;13.32;;;6.60;85.10;;;;;;5117214;28;20073;-37
2021/04/10 06:09:22;;;;;;;25.77;12.50;;;6.50;85.40;;;;;;5117103;28;20067;-38
2021/04/10 06:11:47;;;;;;;20.20;11.65;;;6.60;84.90;;;;;;5117551;28;20031;-36
2021/04/10 06:14:13;;;;;;;22.05;12.50;;;6.60;84.50;;;;;;5117224;28;20076;-35
2021/04/10 06:16:40;;;;;;;20.40;12.38;;;6.50;84.80;;;;;;5117307;28;20024;-36
2021/04/10 06:19:06;;;;;;;25.35;12.57;;;6.50;85.50;;;;;;5117343;28;20027;-36
2021/04/10 06:21:31;;;;;;;26.73;12.10;;;6.50;85.10;;;;;;5116776;28;20420;-36
2021/04/10 06:23:57;;;;;;;22.13;10.65;;;6.30;85.30;;;;;;5117101;28;20103;-37
2021/04/10 06:26:22;;;;;;;23.98;11.65;;;6.40;85.40;;;;;;5116778;28;20030;-36
2021/04/10 06:28:48;;;;;;;22.05;11.55;;;6.40;84.90;;;;;;5117086;28;20023;-36
2021/04/10 06:31:14;;;;;;;24.55;11.57;;;6.50;85.30;;;;;;5116856;28;20024;-37
2021/04/10 06:33:39;;;;;;;23.13;13.95;;;6.50;85.30;;;;;;5116749;28;20027;-36
2021/04/10 06:36:05;;;;;;;22.23;12.48;;;6.50;84.90;;;;;;5117093;28;20107;-37
2021/04/10 06:38:31;;;;;;;23.20;10.63;;;6.40;85.40;;;;;;5116705;28;20090;-37
2021/04/10 06:40:59;;;;;;;23.17;12.95;;;6.30;85.10;;;;;;5116800;28;20360;-37
2021/04/10 06:43:24;;;;;;;24.33;12.93;;;6.30;85.50;;;;;;5117232;28;20156;-37
2021/04/10 06:45:50;;;;;;;25.65;13.02;;;6.50;85.40;;;;;;5115268;28;20051;-36
2021/04/10 06:48:17;;;;;;;27.02;14.00;;;6.50;85.30;;;;;;5116756;28;20048;-36
2021/04/10 06:50:44;;;;;;;29.33;11.52;;;6.50;85.10;;;;;;5117323;28;20128;-36
2021/04/10 06:53:17;;;;;;;22.20;12.95;;;6.50;85.10;;;;;;5116609;28;20116;-36
2021/04/10 06:55:51;;;;;;;29.42;12.18;;;6.60;85.20;;;;;;5116469;28;20019;-36
2021/04/10 06:58:46;;;;;;;24.05;13.25;;;6.50;85.00;;;;;;5116217;28;20052;-36
2021/04/10 07:01:13;;;;;;;30.65;14.32;;;6.50;85.70;;;;;;5101377;28;20041;-37
2021/04/10 07:03:41;;;;;;;26.80;13.60;;;6.50;85.10;;;;;;5116526;28;20016;-37
2021/04/10 07:06:10;;;;;;;22.65;12.00;;;6.50;85.40;;;;;;5117547;28;20058;-37
2021/04/10 07:08:36;;;;;;;22.42;12.73;;;6.60;84.90;;;;;;5116806;28;20016;-37
2021/04/10 07:11:03;;;;;;;22.75;12.30;;;6.50;85.30;;;;;;5116239;28;20023;-37
2021/04/10 07:13:29;;;;;;;22.10;13.80;;;6.50;85.50;;;;;;5115107;28;20391;-37
2021/04/10 07:15:58;;;;;;;23.67;14.70;;;6.50;85.00;;;;;;5116511;28;20027;-37
2021/04/10 07:18:28;;;;;;;22.60;12.50;;;6.50;85.10;;;;;;5114559;28;20467;-37
2021/04/10 07:21:11;;;;;;;26.48;13.23;;;6.40;85.70;;;;;;5115725;28;20023;-37
2021/04/10 07:23:55;;;;;;;18.10;12.32;;;6.50;85.80;;;;;;5115857;28;20020;-37
2021/04/10 07:26:48;;;;;;;24.77;14.32;;;6.40;85.90;;;;;;5115904;27;20069;-37
2021/04/10 07:29:31;;;;;;;28.00;14.30;;;6.40;85.90;;;;;;5110520;28;20032;-37
2021/04/10 07:31:58;;;;;;;26.27;14.55;;;6.50;85.60;;;;;;5115733;28;20030;-37
2021/04/10 07:34:25;;;;;;;28.88;14.95;;;6.50;85.80;;;;;;5115917;28;20069;-38
2021/04/10 07:37:00;;;;;;;29.63;15.27;;;6.60;85.50;;;;;;5115934;28;20028;-38
2021/04/10 07:39:27;;;;;;;20.60;13.73;;;6.60;85.30;;;;;;5115601;28;20106;-38
2021/04/10 07:42:04;;;;;;;54.90;15.35;;;6.50;85.10;;;;;;5115461;28;20036;-38
2021/04/10 07:44:40;;;;;;;27.70;14.82;;;6.70;85.40;;;;;;5114949;28;20051;-38
2021/04/10 07:47:08;;;;;;;27.40;12.68;;;6.80;85.00;;;;;;5115285;28;20050;-36
2021/04/10 07:49:35;;;;;;;33.58;13.93;;;6.90;84.20;;;;;;5115041;28;20051;-37
2021/04/10 07:52:05;;;;;;;25.45;14.20;;;6.80;84.30;;;;;;5115559;28;20019;-36
2021/04/10 07:54:43;;;;;;;38.63;16.52;;;6.80;84.30;;;;;;5113991;28;20035;-36
2021/04/10 07:57:11;;;;;;;25.45;14.15;;;6.90;84.20;;;;;;5115887;28;20055;-36
2021/04/10 07:59:45;;;;;;;25.30;12.93;;;6.90;84.10;;;;;;5114228;28;20016;-37
2021/04/10 08:02:15;;;;;;;27.10;13.95;;;7.20;83.50;;;;;;5114967;28;20159;-36
2021/04/10 08:04:53;;;;;;;26.05;14.75;;;7.20;83.10;;;;;;5114840;28;20020;-36
2021/04/10 08:07:29;;;;;;;26.63;16.17;;;7.20;83.40;;;;;;5113721;28;20485;-37
2021/04/10 08:10:04;;;;;;;27.40;17.00;;;7.30;83.50;;;;;;5115106;27;20023;-37
2021/04/10 08:12:31;;;;;;;23.20;14.52;;;7.40;82.90;;;;;;5113592;28;20019;-37
2021/04/10 08:14:58;;;;;;;27.10;14.95;;;7.40;81.50;;;;;;5114517;28;20102;-38
2021/04/10 08:17:39;;;;;;;35.40;18.45;;;7.30;82.90;;;;;;5115034;27;20020;-37
2021/04/10 08:20:24;;;;;;;;;;;7.40;82.40;;;;;;5113723;28;20387;-37
2021/04/10 08:22:51;;;;;;;25.90;15.27;;;7.40;81.90;;;;;;5114414;28;20010;-37
2021/04/10 08:25:33;;;;;;;30.38;15.70;;;7.30;81.80;;;;;;5113134;28;20027;-36
2021/04/10 08:28:00;;;;;;;24.15;14.73;;;7.30;82.20;;;;;;5114341;28;20031;-36
2021/04/10 08:30:26;;;;;;;30.95;16.90;;;7.30;83.00;;;;;;5114597;28;20043;-37
2021/04/10 08:32:52;;;;;;;28.10;14.15;;;7.60;82.10;;;;;;5114357;28;20035;-36
2021/04/10 08:35:19;;;;;;;24.33;13.02;;;7.70;81.10;;;;;;5114257;28;20371;-36
2021/04/10 08:37:52;;;;;;;24.77;14.57;;;7.40;81.10;;;;;;5112741;28;20023;-37
2021/04/10 08:40:23;;;;;;;22.90;14.90;;;7.50;81.40;;;;;;5114943;28;20051;-37
2021/04/10 08:42:49;;;;;;;;;;;7.40;81.50;;;;;;5113898;28;20031;-37
2021/04/10 08:45:15;;;;;;;24.73;14.30;;;7.50;81.90;;;;;;5114379;28;19903;-37
2021/04/10 08:47:41;;;;;;;27.45;14.98;;;7.70;80.70;;;;;;5112604;28;20035;-37
2021/04/10 08:50:11;;;;;;;22.83;12.93;;;7.80;80.70;;;;;;5113862;28;20525;-37
2021/04/10 08:52:38;;;;;;;23.30;14.07;;;8.00;80.10;;;;;;5113998;28;20388;-36
2021/04/10 08:55:07;;;;;;;23.83;15.63;;;7.60;80.10;;;;;;5114136;28;20016;-36
2021/04/10 08:57:42;;;;;;;30.90;16.35;;;7.50;81.20;;;;;;5114242;28;20032;-38
2021/04/10 09:00:17;;;;;;;29.38;16.13;;;7.70;81.10;;;;;;5114224;28;20024;-37
2021/04/10 09:02:54;;;;;;;33.00;16.92;;;7.70;79.80;;;;;;5113849;28;20030;-36
2021/04/10 09:05:21;;;;;;;26.25;15.60;;;7.70;80.40;;;;;;5112652;28;20074;-38
2021/04/10 09:07:49;;;;;;;39.75;19.05;;;7.60;80.80;;;;;;5114192;28;20051;-36
2021/04/10 09:10:24;;;;;;;27.45;15.05;;;7.70;81.30;;;;;;5113000;28;20336;-37
2021/04/10 09:13:10;;;;;;;28.33;16.60;;;7.90;80.10;;;;;;5112284;28;20088;-38
2021/04/10 09:15:36;;;;;;;34.25;16.08;;;8.10;79.50;;;;;;5111793;28;20027;-36
2021/04/10 09:18:05;;;;;;;31.15;17.40;;;8.20;78.90;;;;;;5112281;28;20053;-37
2021/04/10 09:20:43;;;;;;;29.70;16.98;;;7.90;79.70;;;;;;5112639;28;20491;-37
2021/04/10 09:23:33;;;;;;;30.48;18.55;;;7.80;80.00;;;;;;5113908;28;20455;-36
2021/04/10 09:26:14;;;;;;;31.88;16.88;;;7.60;81.00;;;;;;5113732;28;20073;-37
2021/04/10 09:28:54;;;;;;;23.05;15.77;;;7.80;80.90;;;;;;5113933;28;20051;-36
2021/04/10 09:31:36;;;;;;;31.13;17.40;;;8.00;79.40;;;;;;5113561;28;20020;-37
2021/04/10 09:34:03;;;;;;;39.00;18.13;;;7.80;80.40;;;;;;5113754;28;20063;-37
2021/04/10 09:36:45;;;;;;;27.42;15.52;;;7.80;80.60;;;;;;5113710;28;20091;-36
2021/04/10 09:39:31;;;;;;;34.35;18.42;;;7.60;81.20;;;;;;5113133;28;20032;-37
2021/04/10 09:41:56;;;;;;;30.45;17.80;;;7.50;81.20;;;;;;5113025;28;20028;-36
2021/04/10 09:44:22;;;;;;;30.25;18.52;;;7.60;81.30;;;;;;5113180;28;20020;-37
2021/04/10 09:46:54;;;;;;;29.48;16.58;;;7.40;81.50;;;;;;5113113;28;20055;-37
2021/04/10 09:49:39;;;;;;;31.20;17.70;;;7.50;82.00;;;;;;5112969;28;20052;-37
2021/04/10 09:52:06;;;;;;;29.02;16.48;;;7.60;81.60;;;;;;5113929;28;20035;-37
2021/04/10 09:54:32;;;;;;;29.90;15.65;;;7.60;81.80;;;;;;5112719;28;20023;-37
2021/04/10 09:56:58;;;;;;;27.73;18.52;;;7.50;82.00;;;;;;5112987;28;20471;-37
2021/04/10 09:59:24;;;;;;;33.75;17.77;;;7.30;81.90;;;;;;5112452;28;20028;-37
2021/04/10 10:01:50;;;;;;;25.10;15.93;;;7.50;82.20;;;;;;5113611;28;20059;-38
2021/04/10 10:04:16;;;;;;;28.20;17.25;;;7.70;81.80;;;;;;5113841;28;20050;-37
2021/04/10 10:06:46;;;;;;;27.30;16.23;;;7.80;81.40;;;;;;5113519;28;20130;-38
2021/04/10 10:09:41;;;;;;;32.20;16.30;;;7.70;80.90;;;;;;5113104;28;20055;-38
2021/04/10 10:12:07;;;;;;;29.20;16.27;;;7.60;81.10;;;;;;5103912;28;20027;-38
2021/04/10 10:14:46;;;;;;;28.25;16.55;;;7.70;81.20;;;;;;5113314;28;20027;-36
2021/04/10 10:17:12;;;;;;;30.42;16.95;;;7.50;81.10;;;;;;5113041;28;20024;-36
2021/04/10 10:19:37;;;;;;;31.88;17.98;;;7.50;82.20;;;;;;5111711;28;20073;-36
2021/04/10 10:22:03;;;;;;;40.47;17.85;;;7.50;81.60;;;;;;5114859;28;20100;-36
2021/04/10 10:24:29;;;;;;;25.63;15.85;;;7.50;82.50;;;;;;5116841;28;20385;-36
2021/04/10 10:26:54;;;;;;;33.63;18.52;;;7.40;81.80;;;;;;5116547;27;20020;-38
2021/04/10 10:29:20;;;;;;;42.22;21.65;;;7.30;82.90;;;;;;5116734;28;20548;-36
2021/04/10 10:31:46;;;;;;;30.55;17.27;;;7.30;82.90;;;;;;5116635;28;20471;-37
2021/04/10 10:34:14;;;;;;;40.97;19.77;;;7.40;82.70;;;;;;5116673;28;20028;-36
2021/04/10 10:36:42;;;;;;;49.22;22.00;;;7.40;82.50;;;;;;5116454;28;20055;-38
2021/04/10 10:39:30;;;;;;;29.08;16.42;;;7.60;83.00;;;;;;5116319;27;20092;-36
2021/04/10 10:41:58;;;;;;;32.30;18.40;;;7.50;82.30;;;;;;5116761;28;20027;-38
2021/04/10 10:44:24;;;;;;;29.65;17.75;;;7.60;82.50;;;;;;5116612;28;20051;-37
2021/04/10 10:47:01;;;;;;;31.00;18.48;;;7.60;82.90;;;;;;5116740;28;20023;-37
2021/04/10 10:49:27;;;;;;;32.72;16.55;;;7.50;82.90;;;;;;5115825;28;20039;-37
2021/04/10 10:51:52;;;;;;;36.78;19.50;;;7.50;84.10;;;;;;5116072;28;20030;-37
2021/04/10 10:54:18;;;;;;;30.48;18.63;;;7.70;83.40;;;;;;5115067;28;20153;-37
2021/04/10 10:56:44;;;;;;;39.72;17.88;;;7.80;83.10;;;;;;5116135;28;20020;-36
2021/04/10 10:59:10;;;;;;;55.53;19.17;;;7.70;83.60;;;;;;5114726;28;20359;-37
2021/04/10 11:01:37;;;;;;;36.65;19.58;;;7.50;83.30;;;;;;5115698;28;20023;-37
2021/04/10 11:04:23;;;;;;;45.28;17.83;;;7.60;84.40;;;;;;5115682;28;20022;-44
2021/04/10 11:06:50;;;;;;;33.97;17.38;;;7.60;84.20;;;;;;5115798;28;20034;-37
2021/04/10 11:09:23;;;;;;;29.67;18.65;;;7.60;83.60;;;;;;5114887;28;20020;-38
2021/04/10 11:11:51;;;;;;;36.90;21.08;;;7.50;83.90;;;;;;5115471;28;20027;-38
2021/04/10 11:14:23;;;;;;;33.40;19.73;;;7.40;84.20;;;;;;5116310;28;20382;-37
2021/04/10 11:16:50;;;;;;;45.22;23.15;;;7.40;84.50;;;;;;5116023;28;20027;-37
2021/04/10 11:19:26;;;;;;;42.85;22.38;;;7.60;85.30;;;;;;5116179;28;20034;-36
2021/04/10 11:21:52;;;;;;;40.00;20.92;;;7.70;85.20;;;;;;5115870;28;20348;-37
2021/04/10 11:24:18;;;;;;;36.85;22.08;;;7.60;85.10;;;;;;5114117;28;20106;-37
2021/04/10 11:26:54;;;;;;;37.85;22.08;;;7.50;85.50;;;;;;5115051;28;20101;-37
2021/04/10 11:29:34;;;;;;;37.78;22.83;;;7.60;86.20;;;;;;5115361;28;20491;-37
2021/04/10 11:32:05;;;;;;;40.08;23.73;;;7.70;86.60;;;;;;5115547;28;20505;-36
2021/04/10 11:34:35;;;;;;;43.15;24.80;;;7.60;86.50;;;;;;5113323;28;20015;-36
2021/04/10 11:37:02;;;;;;;41.80;23.20;;;7.40;86.50;;;;;;5115779;28;20502;-37
2021/04/10 11:39:29;;;;;;;46.28;22.95;;;7.50;87.10;;;;;;5114989;28;20030;-37
2021/04/10 11:41:55;;;;;;;36.67;21.60;;;7.50;87.00;;;;;;5114834;28;20027;-36
2021/04/10 11:44:23;;;;;;;41.50;23.85;;;7.50;87.20;;;;;;5115328;28;20027;-36
2021/04/10 11:46:58;;;;;;;39.22;21.40;;;7.60;86.90;;;;;;5114995;28;20019;-36
2021/04/10 11:49:28;;;;;;;36.15;21.95;;;7.30;87.00;;;;;;5113705;28;20054;-37
2021/04/10 11:52:05;;;;;;;53.35;23.90;;;7.30;87.00;;;;;;5115069;28;20020;-37
2021/04/10 11:54:35;;;;;;;41.80;20.95;;;7.40;86.80;;;;;;5115451;28;20043;-36
2021/04/10 11:57:02;;;;;;;43.95;24.58;;;7.30;87.20;;;;;;5114964;28;20023;-37
2021/04/10 11:59:35;;;;;;;40.80;21.88;;;7.40;87.70;;;;;;5115231;28;20535;-37
2021/04/10 12:02:02;;;;;;;48.50;25.35;;;7.40;87.00;;;;;;5114736;28;20027;-36
2021/04/10 12:04:37;;;;;;;51.60;24.55;;;7.30;87.50;;;;;;5115228;28;20102;-36
2021/04/10 12:07:05;;;;;;;41.83;24.13;;;7.30;88.00;;;;;;5114838;28;20034;-37
2021/04/10 12:09:34;;;;;;;32.15;18.92;;;7.40;88.00;;;;;;5114856;28;20407;-37
2021/04/10 12:12:00;;;;;;;48.67;25.90;;;7.30;87.10;;;;;;5114583;28;20479;-37
2021/04/10 12:14:26;;;;;;;50.28;25.52;;;7.30;88.30;;;;;;5113636;28;20047;-37
2021/04/10 12:16:51;;;;;;;42.90;25.90;;;7.40;88.60;;;;;;5114603;28;20051;-37
2021/04/10 12:19:17;;;;;;;42.15;22.88;;;7.40;87.90;;;;;;5114581;28;20024;-37
2021/04/10 12:21:43;;;;;;;41.42;22.10;;;7.30;88.20;;;;;;5114303;28;20139;-38
2021/04/10 12:24:09;;;;;;;47.20;25.13;;;7.30;88.70;;;;;;5114447;28;20621;-46
2021/04/10 12:26:37;;;;;;;43.67;26.50;;;7.30;88.80;;;;;;5114324;28;20093;-37
2021/04/10 12:29:03;;;;;;;50.17;25.63;;;7.40;88.70;;;;;;5114730;28;20016;-37
2021/04/10 12:31:29;;;;;;;51.88;28.15;;;7.50;88.90;;;;;;5114820;28;20054;-37
2021/04/10 12:33:54;;;;;;;54.10;28.48;;;7.40;88.60;;;;;;5114817;28;20062;-37
2021/04/10 12:36:20;;;;;;;56.90;30.58;;;7.40;89.10;;;;;;5114793;28;20428;-37
2021/04/10 12:38:45;;;;;;;49.47;28.02;;;7.40;89.10;;;;;;5114440;28;20027;-37
2021/04/10 12:41:11;;;;;;;44.33;27.67;;;7.50;89.60;;;;;;5112783;28;20030;-37
2021/04/10 12:43:37;;;;;;;40.72;26.05;;;7.50;89.10;;;;;;5114158;28;20020;-37
2021/04/10 12:46:03;;;;;;;47.13;26.10;;;7.50;88.20;;;;;;5112619;28;20065;-37
2021/04/10 12:48:29;;;;;;;43.75;23.38;;;7.40;88.60;;;;;;5114175;28;20019;-37